createdAt,value
2018-04-25T00:01:57.119Z,6.30
2018-04-25T00:04:25.096Z,8.00
2018-04-25T00:06:52.799Z,10.33
2018-04-25T00:09:21.073Z,9.37
2018-04-25T00:11:49.361Z,8.47
2018-04-25T00:14:16.935Z,6.93
2018-04-25T00:16:44.441Z,8.63
2018-04-25T00:19:11.960Z,11.17
2018-04-25T00:21:39.497Z,10.23
2018-04-25T00:24:07.116Z,8.33
2018-04-25T00:26:34.875Z,9.53
2018-04-25T00:29:02.387Z,7.87
2018-04-25T00:31:29.889Z,9.83
2018-04-25T00:33:57.399Z,6.97
2018-04-25T00:36:25.027Z,8.83
2018-04-25T00:38:52.539Z,9.13
2018-04-25T00:41:20.059Z,6.13
2018-04-25T00:43:48.367Z,6.17
2018-04-25T00:46:16.034Z,4.87
2018-04-25T00:48:43.590Z,6.57
2018-04-25T00:51:11.934Z,9.30
2018-04-25T00:53:40.217Z,8.80
2018-04-25T00:56:08.969Z,9.50
2018-04-25T00:58:36.469Z,12.20
2018-04-25T01:01:03.995Z,8.90
2018-04-25T01:03:31.513Z,6.27
2018-04-25T01:05:59.024Z,8.33
2018-04-25T01:08:27.317Z,6.77
2018-04-25T01:10:55.595Z,9.70
2018-04-25T01:13:23.890Z,5.53
2018-04-25T01:15:51.386Z,4.57
2018-04-25T01:18:18.897Z,5.20
2018-04-25T01:20:46.412Z,8.87
2018-04-25T01:23:19.869Z,10.93
2018-04-25T01:25:47.378Z,4.77
2018-04-25T01:28:14.906Z,10.97
2018-04-25T01:30:46.153Z,8.60
2018-04-25T01:36:21.309Z,8.07
2018-04-25T01:38:49.741Z,4.87
2018-04-25T01:41:18.020Z,6.23
2018-04-25T01:43:56.213Z,5.90
2018-04-25T01:46:27.490Z,14.00
2018-04-25T01:49:16.769Z,10.37
2018-04-25T01:51:56.042Z,4.43
2018-04-25T01:54:35.691Z,3.60
2018-04-25T01:57:15.216Z,3.57
2018-04-25T01:59:54.729Z,6.20
2018-04-25T02:02:21.830Z,8.53
2018-04-25T02:04:50.101Z,4.00
2018-04-25T02:07:17.683Z,5.77
2018-04-25T02:09:46.006Z,7.87
2018-04-25T02:12:14.582Z,6.27
2018-04-25T02:14:42.109Z,11.23
2018-04-25T02:17:09.696Z,11.03
2018-04-25T02:19:37.197Z,9.33
2018-04-25T02:22:04.699Z,11.30
2018-04-25T02:24:32.206Z,8.40
2018-04-25T02:26:59.731Z,8.07
2018-04-25T02:29:27.241Z,6.27
2018-04-25T02:31:55.531Z,7.03
2018-04-25T02:34:23.801Z,8.30
2018-04-25T02:36:52.095Z,7.87
2018-04-25T02:39:19.607Z,10.33
2018-04-25T02:41:47.123Z,8.63
2018-04-25T02:44:14.635Z,8.03
2018-04-25T02:46:42.960Z,6.33
2018-04-25T02:49:10.518Z,9.93
2018-04-25T02:51:38.298Z,9.93
2018-04-25T02:54:05.974Z,7.27
2018-04-25T02:56:33.548Z,8.83
2018-04-25T02:59:01.244Z,7.97
2018-04-25T03:01:28.758Z,6.33
2018-04-25T03:03:56.287Z,7.30
2018-04-25T03:06:23.813Z,7.23
2018-04-25T03:08:52.516Z,11.63
2018-04-25T03:11:20.103Z,5.57
2018-04-25T03:13:47.749Z,5.90
2018-04-25T03:16:15.273Z,3.73
2018-04-25T03:18:43.546Z,5.27
2018-04-25T03:21:11.838Z,8.40
2018-04-25T03:23:40.113Z,5.47
2018-04-25T03:26:08.390Z,6.57
2018-04-25T03:28:36.675Z,10.43
2018-04-25T03:31:04.954Z,5.80
2018-04-25T03:33:32.463Z,7.40
2018-04-25T03:36:01.056Z,4.57
2018-04-25T03:38:28.572Z,6.73
2018-04-25T03:40:56.117Z,7.60
2018-04-25T03:43:23.635Z,12.07
2018-04-25T03:45:51.622Z,10.03
2018-04-25T03:48:19.913Z,9.13
2018-04-25T03:50:47.587Z,3.93
2018-04-25T03:53:15.099Z,5.23
2018-04-25T03:55:43.233Z,5.47
2018-04-25T03:58:10.760Z,5.13
2018-04-25T04:00:39.040Z,8.53
2018-04-25T04:03:06.559Z,5.13
2018-04-25T04:05:34.082Z,7.87
2018-04-25T04:08:02.517Z,6.23
2018-04-25T04:10:30.803Z,6.37
2018-04-25T04:12:59.159Z,10.10
2018-04-25T04:15:26.745Z,11.20
2018-04-25T04:17:55.038Z,9.43
2018-04-25T04:20:24.268Z,10.07
2018-04-25T04:22:52.729Z,8.43
2018-04-25T04:25:20.315Z,8.67
2018-04-25T04:27:47.930Z,10.17
2018-04-25T04:30:15.511Z,11.03
2018-04-25T04:32:43.043Z,11.20
2018-04-25T04:35:11.376Z,5.07
2018-04-25T04:37:38.907Z,9.20
2018-04-25T04:40:06.447Z,9.73
2018-04-25T04:42:33.977Z,6.43
2018-04-25T04:45:01.605Z,11.13
2018-04-25T04:47:29.852Z,12.93
2018-04-25T04:49:57.381Z,11.93
2018-04-25T04:52:25.690Z,11.20
2018-04-25T04:54:53.342Z,10.60
2018-04-25T04:57:20.880Z,11.63
2018-04-25T04:59:49.942Z,9.10
2018-04-25T05:02:17.536Z,11.37
2018-04-25T05:04:45.893Z,13.93
2018-04-25T05:07:13.467Z,10.77
2018-04-25T05:09:42.350Z,14.30
2018-04-25T05:12:09.979Z,13.50
2018-04-25T05:14:38.337Z,8.67
2018-04-25T05:17:05.897Z,4.83
2018-04-25T05:19:33.409Z,6.30
2018-04-25T05:22:01.071Z,10.20
2018-04-25T05:24:29.499Z,9.77
2018-04-25T05:26:57.642Z,9.90
2018-04-25T05:29:25.935Z,7.63
2018-04-25T05:31:53.521Z,5.33
2018-04-25T05:34:21.970Z,6.83
2018-04-25T05:36:49.502Z,11.10
2018-04-25T05:39:17.032Z,7.47
2018-04-25T05:41:45.170Z,11.73
2018-04-25T05:44:12.703Z,4.23
2018-04-25T05:46:41.541Z,8.00
2018-04-25T05:49:09.054Z,8.67
2018-04-25T05:51:37.417Z,14.50
2018-04-25T05:54:04.907Z,8.73
2018-04-25T05:56:32.540Z,7.20
2018-04-25T05:59:00.855Z,13.67
2018-04-25T06:01:28.365Z,8.97
2018-04-25T06:03:56.659Z,17.50
2018-04-25T06:06:24.956Z,17.03
2018-04-25T06:08:52.480Z,18.13
2018-04-25T06:11:20.053Z,13.60
2018-04-25T06:13:48.363Z,16.77
2018-04-25T06:16:15.929Z,8.13
2018-04-25T06:18:43.450Z,16.97
2018-04-25T06:21:12.350Z,9.07
2018-04-25T06:23:40.642Z,8.63
2018-04-25T06:26:08.177Z,11.20
2018-04-25T06:28:36.479Z,10.60
2018-04-25T06:31:04.264Z,10.43
2018-04-25T06:33:31.889Z,8.47
2018-04-25T06:36:00.294Z,10.13
2018-04-25T06:38:27.837Z,7.47
2018-04-25T06:40:55.359Z,9.93
2018-04-25T06:43:23.051Z,6.93
2018-04-25T06:45:51.408Z,14.20
2018-04-25T06:48:18.944Z,6.53
2018-04-25T06:50:46.545Z,9.17
2018-04-25T06:53:14.002Z,8.13
2018-04-25T06:55:42.323Z,6.93
2018-04-25T06:58:09.942Z,14.80
2018-04-25T07:00:38.398Z,9.30
2018-04-25T07:03:06.686Z,10.27
2018-04-25T07:05:34.981Z,8.00
2018-04-25T07:08:03.321Z,11.20
2018-04-25T07:10:30.896Z,9.93
2018-04-25T07:12:59.334Z,9.13
2018-04-25T07:15:27.006Z,9.53
2018-04-25T07:17:54.623Z,5.70
2018-04-25T07:20:22.211Z,10.43
2018-04-25T07:22:49.770Z,9.70
2018-04-25T07:25:17.304Z,7.93
2018-04-25T07:27:44.826Z,7.40
2018-04-25T07:30:12.535Z,8.40
2018-04-25T07:32:40.064Z,6.90
2018-04-25T07:35:08.362Z,12.63
2018-04-25T07:37:35.897Z,6.87
2018-04-25T07:40:05.054Z,6.63
2018-04-25T07:42:32.694Z,8.00
2018-04-25T07:45:00.333Z,7.07
2018-04-25T07:47:28.611Z,7.17
2018-04-25T07:49:56.895Z,12.07
2018-04-25T07:52:24.895Z,8.50
2018-04-25T07:54:52.442Z,11.00
2018-04-25T07:57:19.971Z,13.63
2018-04-25T07:59:48.250Z,8.60
2018-04-25T08:02:16.670Z,13.40
2018-04-25T08:04:44.205Z,7.10
2018-04-25T08:07:11.742Z,9.73
2018-04-25T08:09:40.053Z,13.57
2018-04-25T08:12:19.395Z,6.20
2018-04-25T08:14:58.892Z,9.53
2018-04-25T08:17:39.219Z,9.97
2018-04-25T08:20:27.461Z,8.73
2018-04-25T08:22:55.169Z,11.40
2018-04-25T08:25:22.723Z,10.20
2018-04-25T08:27:51.009Z,9.87
2018-04-25T08:30:18.650Z,11.27
2018-04-25T08:32:46.952Z,11.03
2018-04-25T08:35:14.530Z,13.23
2018-04-25T08:37:42.067Z,17.70
2018-04-25T08:40:09.706Z,15.50
2018-04-25T08:42:38.043Z,14.30
2018-04-25T08:45:05.652Z,14.07
2018-04-25T08:47:33.123Z,12.70
2018-04-25T08:50:00.676Z,11.50
2018-04-25T08:52:28.960Z,8.00
2018-04-25T08:54:56.573Z,10.40
2018-04-25T08:57:24.108Z,11.77
2018-04-25T08:59:51.658Z,11.77
2018-04-25T09:02:19.299Z,10.30
2018-04-25T09:04:46.827Z,10.67
2018-04-25T09:07:14.481Z,9.93
2018-04-25T09:09:42.017Z,8.73
2018-04-25T09:12:09.537Z,8.83
2018-04-25T09:14:37.598Z,12.37
2018-04-25T09:17:05.902Z,14.60
2018-04-25T09:19:33.428Z,9.90
2018-04-25T09:22:01.745Z,13.07
2018-04-25T09:24:29.275Z,8.00
2018-04-25T09:26:57.579Z,8.10
2018-04-25T09:29:25.130Z,8.80
2018-04-25T09:31:52.709Z,14.20
2018-04-25T09:34:20.260Z,8.00
2018-04-25T09:36:47.923Z,8.87
2018-04-25T09:39:15.454Z,9.57
2018-04-25T09:41:43.582Z,7.17
2018-04-25T09:44:11.143Z,10.73
2018-04-25T09:46:38.674Z,11.23
2018-04-25T09:49:06.226Z,9.10
2018-04-25T09:51:34.239Z,13.40
2018-04-25T09:54:01.794Z,9.60
2018-04-25T09:56:29.323Z,6.23
2018-04-25T09:58:56.847Z,10.67
2018-04-25T10:01:31.243Z,6.53
2018-04-25T10:03:58.872Z,12.50
2018-04-25T10:06:26.384Z,12.93
2018-04-25T10:08:54.060Z,11.67
2018-04-25T10:11:21.599Z,11.57
2018-04-25T10:13:49.908Z,8.10
2018-04-25T10:16:17.507Z,10.70
2018-04-25T10:18:45.037Z,9.27
2018-04-25T10:21:12.594Z,7.07
2018-04-25T10:23:40.107Z,10.73
2018-04-25T10:26:08.421Z,9.63
2018-04-25T10:28:35.954Z,9.20
2018-04-25T10:31:04.156Z,9.03
2018-04-25T10:33:31.681Z,8.60
2018-04-25T10:35:59.977Z,10.30
2018-04-25T10:38:27.529Z,8.67
2018-04-25T10:40:55.808Z,7.03
2018-04-25T10:43:23.331Z,9.53
2018-04-25T10:45:51.429Z,9.43
2018-04-25T10:48:20.460Z,8.83
2018-04-25T10:50:48.017Z,8.53
2018-04-25T10:53:15.650Z,11.43
2018-04-25T10:55:43.956Z,10.27
2018-04-25T10:58:11.501Z,11.73
2018-04-25T11:00:39.766Z,10.53
2018-04-25T11:03:08.078Z,12.40
2018-04-25T11:05:35.640Z,12.97
2018-04-25T11:08:03.177Z,10.90
2018-04-25T11:10:30.727Z,14.27
2018-04-25T11:12:58.980Z,14.23
2018-04-25T11:15:27.305Z,9.93
2018-04-25T11:17:54.868Z,10.80
2018-04-25T11:20:22.642Z,8.23
2018-04-25T11:22:50.207Z,11.00
2018-04-25T11:25:17.926Z,13.77
2018-04-25T11:27:45.448Z,11.53
2018-04-25T11:30:14.611Z,8.93
2018-04-25T11:32:43.050Z,8.10
2018-04-25T11:35:10.762Z,10.50
2018-04-25T11:37:38.482Z,11.90
2018-04-25T11:40:06.162Z,9.53
2018-04-25T11:42:33.842Z,8.20
2018-04-25T11:45:01.381Z,11.77
2018-04-25T11:47:28.958Z,10.77
2018-04-25T11:49:57.056Z,10.63
2018-04-25T11:52:25.454Z,8.97
2018-04-25T11:54:53.738Z,9.73
2018-04-25T11:57:22.058Z,8.80
2018-04-25T11:59:49.627Z,9.27
2018-04-25T12:02:17.234Z,9.87
2018-04-25T12:04:45.519Z,9.10
2018-04-25T12:07:13.838Z,10.17
2018-04-25T12:09:41.358Z,7.90
2018-04-25T12:12:09.910Z,10.57
2018-04-25T12:14:37.454Z,9.03
2018-04-25T12:17:05.060Z,8.53
2018-04-25T12:19:33.369Z,39.43
2018-04-25T12:22:02.558Z,10.40
2018-04-25T12:24:30.119Z,8.57
2018-04-25T12:26:57.679Z,9.33
2018-04-25T12:29:25.207Z,10.53
2018-04-25T12:31:53.511Z,10.70
2018-04-25T12:34:21.151Z,12.80
2018-04-25T12:36:48.680Z,14.80
2018-04-25T12:39:16.294Z,8.47
2018-04-25T12:41:46.053Z,9.40
2018-04-25T12:44:13.582Z,14.53
2018-04-25T12:46:41.911Z,14.87
2018-04-25T12:49:10.194Z,9.47
2018-04-25T12:51:38.480Z,9.07
2018-04-25T12:54:06.177Z,7.90
2018-04-25T12:56:33.687Z,8.83
2018-04-25T12:59:01.255Z,7.07
2018-04-25T13:01:28.805Z,5.90
2018-04-25T13:03:57.154Z,9.83
2018-04-25T13:06:24.742Z,6.63
2018-04-25T13:08:53.087Z,5.67
2018-04-25T13:11:20.613Z,7.13
2018-04-25T13:13:48.267Z,8.83
2018-04-25T13:16:16.257Z,11.00
2018-04-25T13:18:44.296Z,10.97
2018-04-25T13:21:12.508Z,8.97
2018-04-25T13:23:40.720Z,8.57
2018-04-25T13:26:09.121Z,9.77
2018-04-25T13:28:36.681Z,6.57
2018-04-25T13:31:04.196Z,9.73
2018-04-25T13:33:31.754Z,7.00
2018-04-25T13:35:59.278Z,9.27
2018-04-25T13:38:27.652Z,5.97
2018-04-25T13:40:55.474Z,7.23
2018-04-25T13:43:22.997Z,8.37
2018-04-25T13:45:50.539Z,8.63
2018-04-25T13:48:18.064Z,5.00
2018-04-25T13:50:46.385Z,10.57
2018-04-25T13:53:13.943Z,5.83
2018-04-25T13:55:41.498Z,18.43
2018-04-25T13:58:09.104Z,9.60
2018-04-25T14:00:36.710Z,7.67
2018-04-25T14:03:04.258Z,7.33
2018-04-25T14:05:31.830Z,7.03
2018-04-25T14:07:59.403Z,6.40
2018-04-25T14:10:26.977Z,4.57
2018-04-25T14:12:55.484Z,9.60
2018-04-25T14:15:23.022Z,8.33
2018-04-25T14:17:50.554Z,6.57
2018-04-25T14:20:18.165Z,6.63
2018-04-25T14:22:46.419Z,8.20
2018-04-25T14:25:14.831Z,11.93
2018-04-25T14:27:43.131Z,7.17
2018-04-25T14:30:10.759Z,7.23
2018-04-25T14:32:38.460Z,10.80
2018-04-25T14:35:05.984Z,3.97
2018-04-25T14:37:34.295Z,5.57
2018-04-25T14:40:01.927Z,6.00
2018-04-25T14:42:30.226Z,4.70
2018-04-25T14:44:57.751Z,4.10
2018-04-25T14:47:25.331Z,5.53
2018-04-25T14:49:53.632Z,5.80
2018-04-25T14:52:21.186Z,5.57
2018-04-25T14:54:48.769Z,6.80
2018-04-25T14:57:16.306Z,7.40
2018-04-25T14:59:44.553Z,9.27
2018-04-25T15:02:12.865Z,4.33
2018-04-25T15:04:41.135Z,5.70
2018-04-25T15:07:08.682Z,3.17
2018-04-25T15:09:36.295Z,8.43
2018-04-25T15:12:04.616Z,6.50
2018-04-25T15:14:32.912Z,5.30
2018-04-25T15:17:00.446Z,3.73
2018-04-25T15:19:28.768Z,6.77
2018-04-25T15:21:56.293Z,5.70
2018-04-25T15:24:23.833Z,11.20
2018-04-25T15:26:51.552Z,6.23
2018-04-25T15:29:19.110Z,3.23
2018-04-25T15:31:46.635Z,5.23
2018-04-25T15:34:14.197Z,3.60
2018-04-25T15:36:41.735Z,5.00
2018-04-25T15:39:10.053Z,5.50
2018-04-25T15:41:38.351Z,4.33
2018-04-25T15:44:05.924Z,4.80
2018-04-25T15:46:33.470Z,6.03
2018-04-25T15:49:01.083Z,3.97
2018-04-25T15:51:28.724Z,3.50
2018-04-25T15:53:57.039Z,3.33
2018-04-25T15:56:24.594Z,7.00
2018-04-25T15:58:52.147Z,6.93
2018-04-25T16:01:19.723Z,4.03
2018-04-25T16:03:47.380Z,5.67
2018-04-25T16:06:15.004Z,3.97
2018-04-25T16:08:43.334Z,6.23
2018-04-25T16:11:10.910Z,3.93
2018-04-25T16:13:38.428Z,3.30
2018-04-25T16:16:05.963Z,4.97
2018-04-25T16:18:34.266Z,3.80
2018-04-25T16:21:01.817Z,3.93
2018-04-25T16:23:29.424Z,5.90
2018-04-25T16:25:56.969Z,4.33
2018-04-25T16:28:24.678Z,4.97
2018-04-25T16:30:53.047Z,7.33
2018-04-25T16:33:20.553Z,4.37
2018-04-25T16:35:48.085Z,5.67
2018-04-25T16:38:16.504Z,5.17
2018-04-25T16:40:44.132Z,7.63
2018-04-25T16:43:12.433Z,3.80
2018-04-25T16:45:39.961Z,6.70
2018-04-25T16:48:08.279Z,3.90
2018-04-25T16:50:35.893Z,3.37
2018-04-25T16:53:04.215Z,3.17
2018-04-25T16:55:31.760Z,4.83
2018-04-25T16:57:59.392Z,4.47
2018-04-25T17:00:28.083Z,2.70
2018-04-25T17:02:56.390Z,4.03
2018-04-25T17:05:23.950Z,5.13
2018-04-25T17:07:51.632Z,4.30
2018-04-25T17:10:19.173Z,5.03
2018-04-25T17:12:46.821Z,3.57
2018-04-25T17:15:14.540Z,3.47
2018-04-25T17:17:42.072Z,3.40
2018-04-25T17:20:09.603Z,1.93
2018-04-25T17:22:37.250Z,4.97
2018-04-25T17:25:04.798Z,6.73
2018-04-25T17:27:33.117Z,3.43
2018-04-25T17:30:00.673Z,3.63
2018-04-25T17:32:28.252Z,9.03
2018-04-25T17:34:55.794Z,9.23
2018-04-25T17:37:23.339Z,3.83
2018-04-25T17:39:51.041Z,2.70
2018-04-25T17:42:18.618Z,3.37
2018-04-25T17:44:46.179Z,4.83
2018-04-25T17:47:14.490Z,4.77
2018-04-25T17:49:42.062Z,8.03
2018-04-25T17:52:10.535Z,3.50
2018-04-25T17:54:38.064Z,6.93
2018-04-25T17:57:06.942Z,4.27
2018-04-25T17:59:34.475Z,6.37
2018-04-25T18:02:02.019Z,4.27
2018-04-25T18:04:29.602Z,4.40
2018-04-25T18:06:57.150Z,4.53
2018-04-25T18:09:24.714Z,4.43
2018-04-25T18:11:52.417Z,3.87
2018-04-25T18:14:21.216Z,3.13
2018-04-25T18:16:49.553Z,4.03
2018-04-25T18:19:17.284Z,1.90
2018-04-25T18:21:44.929Z,1.47
2018-04-25T18:24:12.482Z,3.90
2018-04-25T18:26:40.954Z,5.40
2018-04-25T18:29:09.368Z,5.20
2018-04-25T18:31:37.124Z,5.00
2018-04-25T18:34:04.678Z,1.70
2018-04-25T18:36:32.212Z,3.47
2018-04-25T18:39:00.538Z,3.43
2018-04-25T18:41:28.960Z,2.00
2018-04-25T18:43:57.561Z,2.83
2018-04-25T18:46:25.034Z,2.07
2018-04-25T18:48:52.557Z,1.80
2018-04-25T18:51:20.110Z,2.83
2018-04-25T18:53:47.730Z,4.73
2018-04-25T18:56:15.318Z,2.70
2018-04-25T18:58:42.888Z,2.70
2018-04-25T19:01:10.555Z,3.57
2018-04-25T19:03:38.079Z,1.43
2018-04-25T19:06:05.664Z,1.60
2018-04-25T19:08:33.379Z,1.27
2018-04-25T19:11:00.954Z,3.60
2018-04-25T19:13:28.499Z,2.23
2018-04-25T19:15:56.203Z,5.67
2018-04-25T19:18:23.853Z,3.40
2018-04-25T19:20:52.282Z,1.73
2018-04-25T19:23:20.909Z,4.27
2018-04-25T19:25:48.433Z,3.70
2018-04-25T19:28:15.986Z,2.60
2018-04-25T19:30:44.279Z,2.67
2018-04-25T19:33:11.959Z,3.20
2018-04-25T19:35:39.540Z,1.47
2018-04-25T19:38:07.193Z,2.57
2018-04-25T19:40:34.735Z,1.60
2018-04-25T19:43:02.263Z,1.23
2018-04-25T19:45:30.585Z,2.93
2018-04-25T19:47:58.123Z,3.23
2018-04-25T19:50:25.767Z,2.13
2018-04-25T19:52:53.348Z,2.00
2018-04-25T19:55:21.032Z,1.67
2018-04-25T19:57:48.564Z,1.83
2018-04-25T20:00:16.115Z,1.73
2018-04-25T20:02:43.741Z,2.10
2018-04-25T20:05:12.076Z,1.30
2018-04-25T20:07:39.634Z,2.23
2018-04-25T20:10:07.276Z,2.37
2018-04-25T20:12:35.082Z,2.40
2018-04-25T20:15:02.618Z,1.27
2018-04-25T20:17:30.753Z,1.50
2018-04-25T20:19:59.080Z,1.43
2018-04-25T20:22:26.663Z,2.17
2018-04-25T20:24:54.417Z,0.77
2018-04-25T20:27:21.941Z,1.57
2018-04-25T20:29:49.546Z,1.50
2018-04-25T20:32:18.010Z,2.20
2018-04-25T20:34:45.569Z,1.50
2018-04-25T20:37:13.240Z,2.80
2018-04-25T20:39:40.982Z,1.73
2018-04-25T20:42:08.530Z,2.03
2018-04-25T20:44:36.069Z,2.80
2018-04-25T20:47:04.611Z,3.60
2018-04-25T20:49:33.126Z,3.70
2018-04-25T20:52:01.647Z,1.93
2018-04-25T20:54:29.304Z,4.13
2018-04-25T20:56:56.936Z,1.20
2018-04-25T20:59:25.027Z,2.20
2018-04-25T21:01:52.564Z,3.67
2018-04-25T21:04:20.906Z,1.60
2018-04-25T21:06:48.610Z,1.87
2018-04-25T21:09:16.916Z,1.57
2018-04-25T21:11:44.443Z,3.63
2018-04-25T21:14:12.757Z,1.47
2018-04-25T21:16:40.276Z,2.23
2018-04-25T21:19:08.590Z,1.30
2018-04-25T21:21:36.122Z,1.20
2018-04-25T21:24:04.710Z,1.40
2018-04-25T21:26:32.815Z,2.40
2018-04-25T21:29:00.985Z,1.97
2018-04-25T21:31:28.526Z,1.57
2018-04-25T21:33:56.944Z,1.90
2018-04-25T21:36:24.669Z,1.50
2018-04-25T21:38:52.210Z,3.13
2018-04-25T21:41:20.518Z,1.70
2018-04-25T21:43:48.066Z,1.50
2018-04-25T21:46:15.614Z,1.90
2018-04-25T21:48:44.094Z,1.90
2018-04-25T21:51:11.692Z,1.93
2018-04-25T21:53:39.395Z,1.93
2018-04-25T21:56:08.424Z,1.80
2018-04-25T21:58:35.981Z,1.80
2018-04-25T22:01:03.514Z,1.90
2018-04-25T22:03:31.823Z,4.23
2018-04-25T22:05:59.676Z,2.30
2018-04-25T22:08:27.208Z,2.50
2018-04-25T22:10:55.503Z,3.67
2018-04-25T22:13:23.032Z,2.87
2018-04-25T22:15:52.080Z,2.30
2018-04-25T22:18:19.654Z,3.90
2018-04-25T22:20:47.298Z,3.77
2018-04-25T22:23:14.819Z,3.53
2018-04-25T22:25:43.129Z,2.23
2018-04-25T22:28:10.661Z,4.30
2018-04-25T22:30:38.995Z,3.30
2018-04-25T22:33:06.573Z,3.20
2018-04-25T22:35:34.126Z,2.60
2018-04-25T22:38:01.832Z,3.20
2018-04-25T22:40:29.454Z,3.30
2018-04-25T22:42:56.988Z,2.93
2018-04-25T22:45:24.548Z,3.00
2018-04-25T22:47:52.124Z,3.83
2018-04-25T22:50:20.639Z,3.90
2018-04-25T22:52:48.964Z,3.57
